sensor_id;sensor_type;location;lat;lon;timestamp;P1;durP1;ratioP1;P2;durP2;ratioP2
66485;SDS011;53303;47.476;8.084;2023-04-02T00:01:02;5.47;;;1.20;;
66485;SDS011;53303;47.476;8.084;2023-04-02T00:06:18;3.55;;;0.82;;
66485;SDS011;53303;47.476;8.084;2023-04-02T00:08:58;6.00;;;1.10;;
66485;SDS011;53303;47.476;8.084;2023-04-02T00:11:36;6.95;;;0.90;;
66485;SDS011;53303;47.476;8.084;2023-04-02T00:14:05;5.68;;;1.20;;
66485;SDS011;53303;47.476;8.084;2023-04-02T00:16:52;3.78;;;1.10;;
66485;SDS011;53303;47.476;8.084;2023-04-02T00:19:36;4.13;;;1.10;;
66485;SDS011;53303;47.476;8.084;2023-04-02T00:22:06;6.57;;;1.33;;
66485;SDS011;53303;47.476;8.084;2023-04-02T00:24:38;7.15;;;1.55;;
66485;SDS011;53303;47.476;8.084;2023-04-02T00:27:08;4.45;;;1.20;;
66485;SDS011;53303;47.476;8.084;2023-04-02T00:29:45;4.35;;;1.10;;
66485;SDS011;53303;47.476;8.084;2023-04-02T00:32:22;4.57;;;1.10;;
66485;SDS011;53303;47.476;8.084;2023-04-02T00:34:50;3.40;;;1.00;;
66485;SDS011;53303;47.476;8.084;2023-04-02T00:37:18;7.80;;;1.30;;
66485;SDS011;53303;47.476;8.084;2023-04-02T00:39:48;3.58;;;1.10;;
66485;SDS011;53303;47.476;8.084;2023-04-02T00:42:16;6.28;;;1.35;;
66485;SDS011;53303;47.476;8.084;2023-04-02T00:44:43;5.50;;;1.00;;
66485;SDS011;53303;47.476;8.084;2023-04-02T00:50:03;4.93;;;1.08;;
66485;SDS011;53303;47.476;8.084;2023-04-02T00:52:31;4.40;;;0.93;;
66485;SDS011;53303;47.476;8.084;2023-04-02T00:55:05;3.97;;;1.05;;
66485;SDS011;53303;47.476;8.084;2023-04-02T00:57:36;4.20;;;1.38;;
66485;SDS011;53303;47.476;8.084;2023-04-02T01:02:36;4.85;;;1.15;;
66485;SDS011;53303;47.476;8.084;2023-04-02T01:10:37;6.82;;;1.17;;
66485;SDS011;53303;47.476;8.084;2023-04-02T01:13:24;4.75;;;1.20;;
66485;SDS011;53303;47.476;8.084;2023-04-02T01:24:44;7.20;;;0.88;;
66485;SDS011;53303;47.476;8.084;2023-04-02T01:27:18;4.40;;;0.82;;
66485;SDS011;53303;47.476;8.084;2023-04-02T01:29:53;3.33;;;0.75;;
66485;SDS011;53303;47.476;8.084;2023-04-02T01:32:22;4.95;;;0.70;;
66485;SDS011;53303;47.476;8.084;2023-04-02T01:34:50;3.17;;;0.82;;
66485;SDS011;53303;47.476;8.084;2023-04-02T01:40:04;4.13;;;1.10;;
66485;SDS011;53303;47.476;8.084;2023-04-02T01:42:57;4.40;;;0.70;;
66485;SDS011;53303;47.476;8.084;2023-04-02T01:45:30;4.05;;;0.88;;
66485;SDS011;53303;47.476;8.084;2023-04-02T01:47:55;2.90;;;0.70;;
66485;SDS011;53303;47.476;8.084;2023-04-02T01:50:27;2.30;;;0.80;;
66485;SDS011;53303;47.476;8.084;2023-04-02T01:52:59;3.13;;;0.75;;
66485;SDS011;53303;47.476;8.084;2023-04-02T01:58:07;4.45;;;0.93;;
66485;SDS011;53303;47.476;8.084;2023-04-02T02:00:35;4.53;;;0.88;;
66485;SDS011;53303;47.476;8.084;2023-04-02T02:03:09;3.88;;;1.00;;
66485;SDS011;53303;47.476;8.084;2023-04-02T02:05:36;3.42;;;0.82;;
66485;SDS011;53303;47.476;8.084;2023-04-02T02:08:09;3.60;;;0.90;;
66485;SDS011;53303;47.476;8.084;2023-04-02T02:10:47;4.95;;;1.17;;
66485;SDS011;53303;47.476;8.084;2023-04-02T02:13:13;2.03;;;0.65;;
66485;SDS011;53303;47.476;8.084;2023-04-02T02:15:40;5.45;;;0.90;;
66485;SDS011;53303;47.476;8.084;2023-04-02T02:18:05;3.78;;;1.02;;
66485;SDS011;53303;47.476;8.084;2023-04-02T02:20:37;3.63;;;0.90;;
66485;SDS011;53303;47.476;8.084;2023-04-02T02:23:03;3.25;;;1.10;;
66485;SDS011;53303;47.476;8.084;2023-04-02T02:25:30;3.63;;;0.95;;
66485;SDS011;53303;47.476;8.084;2023-04-02T02:30:51;3.72;;;0.90;;
66485;SDS011;53303;47.476;8.084;2023-04-02T02:33:25;2.55;;;0.60;;
66485;SDS011;53303;47.476;8.084;2023-04-02T02:36:03;4.13;;;0.80;;
66485;SDS011;53303;47.476;8.084;2023-04-02T02:40:59;2.25;;;0.90;;
66485;SDS011;53303;47.476;8.084;2023-04-02T02:43:58;4.90;;;1.13;;
66485;SDS011;53303;47.476;8.084;2023-04-02T02:46:52;3.72;;;0.93;;
66485;SDS011;53303;47.476;8.084;2023-04-02T02:49:32;3.05;;;0.70;;
66485;SDS011;53303;47.476;8.084;2023-04-02T02:54:37;3.13;;;0.80;;
66485;SDS011;53303;47.476;8.084;2023-04-02T02:57:07;2.90;;;0.80;;
66485;SDS011;53303;47.476;8.084;2023-04-02T02:59:40;3.40;;;0.80;;
66485;SDS011;53303;47.476;8.084;2023-04-02T03:02:06;3.72;;;1.10;;
66485;SDS011;53303;47.476;8.084;2023-04-02T03:04:32;2.22;;;0.70;;
66485;SDS011;53303;47.476;8.084;2023-04-02T03:07:02;3.30;;;0.73;;
66485;SDS011;53303;47.476;8.084;2023-04-02T03:14:58;2.65;;;0.95;;
66485;SDS011;53303;47.476;8.084;2023-04-02T03:17:33;11.07;;;1.10;;
66485;SDS011;53303;47.476;8.084;2023-04-02T03:20:30;3.95;;;0.85;;
66485;SDS011;53303;47.476;8.084;2023-04-02T03:28:35;2.35;;;0.60;;
66485;SDS011;53303;47.476;8.084;2023-04-02T03:31:07;2.90;;;1.00;;
66485;SDS011;53303;47.476;8.084;2023-04-02T03:33:54;4.22;;;0.70;;
66485;SDS011;53303;47.476;8.084;2023-04-02T03:36:34;2.30;;;1.08;;
66485;SDS011;53303;47.476;8.084;2023-04-02T03:41:50;1.95;;;0.70;;
66485;SDS011;53303;47.476;8.084;2023-04-02T03:44:26;5.22;;;0.90;;
66485;SDS011;53303;47.476;8.084;2023-04-02T03:46:58;4.50;;;1.13;;
66485;SDS011;53303;47.476;8.084;2023-04-02T03:49:35;4.45;;;0.80;;
66485;SDS011;53303;47.476;8.084;2023-04-02T03:52:13;2.35;;;0.80;;
66485;SDS011;53303;47.476;8.084;2023-04-02T03:54:44;2.47;;;1.08;;
66485;SDS011;53303;47.476;8.084;2023-04-02T03:57:20;3.97;;;0.80;;
66485;SDS011;53303;47.476;8.084;2023-04-02T03:59:56;3.70;;;0.75;;
66485;SDS011;53303;47.476;8.084;2023-04-02T04:05:46;3.72;;;0.80;;
66485;SDS011;53303;47.476;8.084;2023-04-02T04:08:16;4.30;;;0.60;;
66485;SDS011;53303;47.476;8.084;2023-04-02T04:10:45;2.05;;;0.90;;
66485;SDS011;53303;47.476;8.084;2023-04-02T04:13:16;3.30;;;0.77;;
66485;SDS011;53303;47.476;8.084;2023-04-02T04:16:03;4.25;;;0.88;;
66485;SDS011;53303;47.476;8.084;2023-04-02T04:18:40;4.22;;;0.60;;
66485;SDS011;53303;47.476;8.084;2023-04-02T04:21:21;2.22;;;0.82;;
66485;SDS011;53303;47.476;8.084;2023-04-02T04:24:17;3.28;;;0.57;;
66485;SDS011;53303;47.476;8.084;2023-04-02T04:32:20;1.77;;;0.65;;
66485;SDS011;53303;47.476;8.084;2023-04-02T04:34:52;3.72;;;0.75;;
66485;SDS011;53303;47.476;8.084;2023-04-02T04:37:29;3.42;;;0.95;;
66485;SDS011;53303;47.476;8.084;2023-04-02T04:42:40;1.58;;;0.88;;
66485;SDS011;53303;47.476;8.084;2023-04-02T04:47:59;2.13;;;1.00;;
66485;SDS011;53303;47.476;8.084;2023-04-02T04:50:32;4.43;;;0.93;;
66485;SDS011;53303;47.476;8.084;2023-04-02T04:53:06;1.48;;;0.70;;
66485;SDS011;53303;47.476;8.084;2023-04-02T04:55:42;2.13;;;1.08;;
66485;SDS011;53303;47.476;8.084;2023-04-02T05:03:53;3.13;;;0.93;;
66485;SDS011;53303;47.476;8.084;2023-04-02T05:09:29;1.02;;;0.52;;
66485;SDS011;53303;47.476;8.084;2023-04-02T05:14:50;3.33;;;0.68;;
66485;SDS011;53303;47.476;8.084;2023-04-02T05:19:54;4.97;;;1.08;;
66485;SDS011;53303;47.476;8.084;2023-04-02T05:27:36;3.97;;;0.73;;
66485;SDS011;53303;47.476;8.084;2023-04-02T05:30:14;2.33;;;0.70;;
66485;SDS011;53303;47.476;8.084;2023-04-02T05:32:52;3.33;;;1.38;;
66485;SDS011;53303;47.476;8.084;2023-04-02T05:35:23;1.63;;;0.60;;
66485;SDS011;53303;47.476;8.084;2023-04-02T05:37:56;3.70;;;1.00;;
66485;SDS011;53303;47.476;8.084;2023-04-02T05:40:26;3.20;;;0.80;;
66485;SDS011;53303;47.476;8.084;2023-04-02T05:42:56;3.47;;;1.00;;
66485;SDS011;53303;47.476;8.084;2023-04-02T05:45:50;4.38;;;0.88;;
66485;SDS011;53303;47.476;8.084;2023-04-02T05:48:20;5.47;;;0.90;;
66485;SDS011;53303;47.476;8.084;2023-04-02T05:50:53;1.60;;;0.73;;
66485;SDS011;53303;47.476;8.084;2023-04-02T05:53:26;4.25;;;1.00;;
66485;SDS011;53303;47.476;8.084;2023-04-02T06:01:36;3.58;;;1.02;;
66485;SDS011;53303;47.476;8.084;2023-04-02T06:06:49;4.00;;;0.60;;
66485;SDS011;53303;47.476;8.084;2023-04-02T06:11:59;4.32;;;0.77;;
66485;SDS011;53303;47.476;8.084;2023-04-02T06:14:34;3.08;;;0.82;;
66485;SDS011;53303;47.476;8.084;2023-04-02T06:17:00;5.63;;;0.98;;
66485;SDS011;53303;47.476;8.084;2023-04-02T06:19:30;2.72;;;0.85;;
66485;SDS011;53303;47.476;8.084;2023-04-02T06:22:06;5.20;;;1.20;;
66485;SDS011;53303;47.476;8.084;2023-04-02T06:24:39;7.35;;;1.10;;
66485;SDS011;53303;47.476;8.084;2023-04-02T06:27:05;11.48;;;1.35;;
66485;SDS011;53303;47.476;8.084;2023-04-02T06:29:38;11.07;;;1.83;;
66485;SDS011;53303;47.476;8.084;2023-04-02T06:32:09;11.07;;;1.70;;
66485;SDS011;53303;47.476;8.084;2023-04-02T06:34:37;8.38;;;1.35;;
66485;SDS011;53303;47.476;8.084;2023-04-02T06:42:55;14.13;;;1.63;;
66485;SDS011;53303;47.476;8.084;2023-04-02T06:45:33;12.18;;;2.00;;
66485;SDS011;53303;47.476;8.084;2023-04-02T06:48:05;13.75;;;1.67;;
66485;SDS011;53303;47.476;8.084;2023-04-02T06:53:33;11.13;;;1.40;;
66485;SDS011;53303;47.476;8.084;2023-04-02T06:58:28;9.20;;;1.40;;
66485;SDS011;53303;47.476;8.084;2023-04-02T07:00:53;9.50;;;1.80;;
66485;SDS011;53303;47.476;8.084;2023-04-02T07:05:50;8.43;;;1.45;;
66485;SDS011;53303;47.476;8.084;2023-04-02T07:08:15;7.05;;;1.23;;
66485;SDS011;53303;47.476;8.084;2023-04-02T07:10:41;9.85;;;1.52;;
66485;SDS011;53303;47.476;8.084;2023-04-02T07:13:09;9.32;;;1.35;;
66485;SDS011;53303;47.476;8.084;2023-04-02T07:15:39;7.20;;;1.20;;
66485;SDS011;53303;47.476;8.084;2023-04-02T07:18:12;7.68;;;1.45;;
66485;SDS011;53303;47.476;8.084;2023-04-02T07:20:56;7.53;;;1.23;;
66485;SDS011;53303;47.476;8.084;2023-04-02T07:23:21;9.73;;;1.00;;
66485;SDS011;53303;47.476;8.084;2023-04-02T07:25:48;7.72;;;1.20;;
66485;SDS011;53303;47.476;8.084;2023-04-02T07:28:14;4.10;;;0.80;;
66485;SDS011;53303;47.476;8.084;2023-04-02T07:30:40;6.85;;;1.20;;
66485;SDS011;53303;47.476;8.084;2023-04-02T07:33:05;8.63;;;1.23;;
66485;SDS011;53303;47.476;8.084;2023-04-02T07:35:31;7.47;;;0.93;;
66485;SDS011;53303;47.476;8.084;2023-04-02T07:37:57;8.73;;;1.20;;
66485;SDS011;53303;47.476;8.084;2023-04-02T07:40:22;5.85;;;1.00;;
66485;SDS011;53303;47.476;8.084;2023-04-02T07:42:48;3.38;;;0.80;;
66485;SDS011;53303;47.476;8.084;2023-04-02T07:45:14;5.85;;;1.20;;
66485;SDS011;53303;47.476;8.084;2023-04-02T07:47:40;4.85;;;1.17;;
66485;SDS011;53303;47.476;8.084;2023-04-02T07:50:07;4.63;;;1.20;;
66485;SDS011;53303;47.476;8.084;2023-04-02T07:52:37;8.23;;;1.20;;
66485;SDS011;53303;47.476;8.084;2023-04-02T07:55:03;6.50;;;1.02;;
66485;SDS011;53303;47.476;8.084;2023-04-02T07:57:29;6.53;;;1.13;;
66485;SDS011;53303;47.476;8.084;2023-04-02T07:59:55;5.68;;;1.30;;
66485;SDS011;53303;47.476;8.084;2023-04-02T08:02:21;3.72;;;1.33;;
66485;SDS011;53303;47.476;8.084;2023-04-02T08:04:50;5.03;;;1.30;;
66485;SDS011;53303;47.476;8.084;2023-04-02T08:07:16;3.80;;;1.00;;
66485;SDS011;53303;47.476;8.084;2023-04-02T08:09:43;5.88;;;0.90;;
66485;SDS011;53303;47.476;8.084;2023-04-02T08:12:11;5.82;;;1.10;;
66485;SDS011;53303;47.476;8.084;2023-04-02T08:14:37;3.15;;;1.05;;
66485;SDS011;53303;47.476;8.084;2023-04-02T08:17:03;5.55;;;1.10;;
66485;SDS011;53303;47.476;8.084;2023-04-02T08:19:31;4.60;;;1.20;;
66485;SDS011;53303;47.476;8.084;2023-04-02T08:21:57;4.47;;;1.00;;
66485;SDS011;53303;47.476;8.084;2023-04-02T08:24:23;5.07;;;1.30;;
66485;SDS011;53303;47.476;8.084;2023-04-02T08:26:48;6.13;;;1.00;;
66485;SDS011;53303;47.476;8.084;2023-04-02T08:29:15;4.47;;;1.00;;
66485;SDS011;53303;47.476;8.084;2023-04-02T08:31:41;5.82;;;1.38;;
66485;SDS011;53303;47.476;8.084;2023-04-02T08:34:06;2.30;;;1.02;;
66485;SDS011;53303;47.476;8.084;2023-04-02T08:36:33;7.25;;;1.02;;
66485;SDS011;53303;47.476;8.084;2023-04-02T08:39:01;5.00;;;1.10;;
66485;SDS011;53303;47.476;8.084;2023-04-02T08:41:28;4.97;;;1.35;;
66485;SDS011;53303;47.476;8.084;2023-04-02T08:46:59;3.70;;;0.85;;
66485;SDS011;53303;47.476;8.084;2023-04-02T08:51:59;8.68;;;1.17;;
66485;SDS011;53303;47.476;8.084;2023-04-02T08:54:30;3.72;;;1.10;;
66485;SDS011;53303;47.476;8.084;2023-04-02T08:57:03;5.22;;;1.00;;
66485;SDS011;53303;47.476;8.084;2023-04-02T08:59:37;3.70;;;1.13;;
66485;SDS011;53303;47.476;8.084;2023-04-02T09:04:43;8.35;;;1.00;;
66485;SDS011;53303;47.476;8.084;2023-04-02T09:07:12;5.72;;;1.40;;
66485;SDS011;53303;47.476;8.084;2023-04-02T09:09:40;5.30;;;1.45;;
66485;SDS011;53303;47.476;8.084;2023-04-02T09:12:10;2.47;;;0.80;;
66485;SDS011;53303;47.476;8.084;2023-04-02T09:14:56;3.72;;;1.00;;
66485;SDS011;53303;47.476;8.084;2023-04-02T09:17:32;3.00;;;1.20;;
66485;SDS011;53303;47.476;8.084;2023-04-02T09:20:03;3.88;;;1.00;;
66485;SDS011;53303;47.476;8.084;2023-04-02T09:22:44;3.10;;;0.80;;
66485;SDS011;53303;47.476;8.084;2023-04-02T09:25:14;3.67;;;0.90;;
66485;SDS011;53303;47.476;8.084;2023-04-02T09:27:43;4.88;;;1.00;;
66485;SDS011;53303;47.476;8.084;2023-04-02T09:32:52;4.95;;;1.00;;
66485;SDS011;53303;47.476;8.084;2023-04-02T09:35:20;4.85;;;1.45;;
66485;SDS011;53303;47.476;8.084;2023-04-02T09:40:41;3.75;;;1.00;;
66485;SDS011;53303;47.476;8.084;2023-04-02T09:48:31;2.40;;;1.23;;
66485;SDS011;53303;47.476;8.084;2023-04-02T09:51:05;3.63;;;0.90;;
66485;SDS011;53303;47.476;8.084;2023-04-02T09:56:17;3.90;;;0.98;;
66485;SDS011;53303;47.476;8.084;2023-04-02T09:58:43;2.00;;;1.00;;
66485;SDS011;53303;47.476;8.084;2023-04-02T10:03:59;2.13;;;0.98;;
66485;SDS011;53303;47.476;8.084;2023-04-02T10:06:28;2.38;;;0.93;;
66485;SDS011;53303;47.476;8.084;2023-04-02T10:08:55;2.63;;;1.10;;
66485;SDS011;53303;47.476;8.084;2023-04-02T10:11:40;2.53;;;1.08;;
66485;SDS011;53303;47.476;8.084;2023-04-02T10:14:11;2.17;;;0.90;;
66485;SDS011;53303;47.476;8.084;2023-04-02T10:16:50;4.57;;;1.23;;
66485;SDS011;53303;47.476;8.084;2023-04-02T10:21:50;3.00;;;1.00;;
66485;SDS011;53303;47.476;8.084;2023-04-02T10:24:17;2.70;;;0.90;;
66485;SDS011;53303;47.476;8.084;2023-04-02T10:32:33;1.33;;;0.68;;
66485;SDS011;53303;47.476;8.084;2023-04-02T10:35:10;2.13;;;0.90;;
66485;SDS011;53303;47.476;8.084;2023-04-02T10:37:59;2.13;;;1.10;;
66485;SDS011;53303;47.476;8.084;2023-04-02T10:40:41;1.90;;;0.77;;
66485;SDS011;53303;47.476;8.084;2023-04-02T10:43:52;1.83;;;1.17;;
66485;SDS011;53303;47.476;8.084;2023-04-02T10:46:19;4.00;;;1.27;;
66485;SDS011;53303;47.476;8.084;2023-04-02T10:57:32;1.67;;;0.90;;
66485;SDS011;53303;47.476;8.084;2023-04-02T11:08:19;2.25;;;0.90;;
66485;SDS011;53303;47.476;8.084;2023-04-02T11:10:59;3.05;;;1.40;;
66485;SDS011;53303;47.476;8.084;2023-04-02T11:16:22;2.05;;;1.05;;
66485;SDS011;53303;47.476;8.084;2023-04-02T11:21:39;2.03;;;1.00;;
66485;SDS011;53303;47.476;8.084;2023-04-02T11:24:21;2.30;;;1.00;;
66485;SDS011;53303;47.476;8.084;2023-04-02T11:26:47;3.45;;;0.90;;
66485;SDS011;53303;47.476;8.084;2023-04-02T11:29:47;1.50;;;0.75;;
66485;SDS011;53303;47.476;8.084;2023-04-02T11:42:26;1.17;;;0.73;;
66485;SDS011;53303;47.476;8.084;2023-04-02T11:44:55;2.00;;;1.10;;
66485;SDS011;53303;47.476;8.084;2023-04-02T11:47:28;2.85;;;1.17;;
66485;SDS011;53303;47.476;8.084;2023-04-02T11:52:21;3.05;;;0.90;;
66485;SDS011;53303;47.476;8.084;2023-04-02T12:00:25;1.58;;;0.90;;
66485;SDS011;53303;47.476;8.084;2023-04-02T12:05:38;2.08;;;0.80;;
66485;SDS011;53303;47.476;8.084;2023-04-02T12:11:29;4.95;;;1.25;;
66485;SDS011;53303;47.476;8.084;2023-04-02T12:13:58;1.58;;;0.68;;
66485;SDS011;53303;47.476;8.084;2023-04-02T12:16:26;2.67;;;0.90;;
66485;SDS011;53303;47.476;8.084;2023-04-02T12:18:56;2.38;;;0.82;;
66485;SDS011;53303;47.476;8.084;2023-04-02T12:21:24;2.08;;;0.80;;
66485;SDS011;53303;47.476;8.084;2023-04-02T12:23:56;2.15;;;1.00;;
66485;SDS011;53303;47.476;8.084;2023-04-02T12:28:51;3.03;;;1.00;;
66485;SDS011;53303;47.476;8.084;2023-04-02T12:31:16;1.88;;;0.73;;
66485;SDS011;53303;47.476;8.084;2023-04-02T12:33:45;3.63;;;1.08;;
66485;SDS011;53303;47.476;8.084;2023-04-02T12:36:20;1.85;;;0.95;;
66485;SDS011;53303;47.476;8.084;2023-04-02T12:38:56;3.35;;;1.13;;
66485;SDS011;53303;47.476;8.084;2023-04-02T12:43:57;3.10;;;1.00;;
66485;SDS011;53303;47.476;8.084;2023-04-02T12:46:23;2.45;;;0.80;;
66485;SDS011;53303;47.476;8.084;2023-04-02T12:48:51;2.97;;;1.10;;
66485;SDS011;53303;47.476;8.084;2023-04-02T12:51:18;1.85;;;1.00;;
66485;SDS011;53303;47.476;8.084;2023-04-02T12:53:47;2.97;;;0.80;;
66485;SDS011;53303;47.476;8.084;2023-04-02T12:56:20;2.83;;;0.80;;
66485;SDS011;53303;47.476;8.084;2023-04-02T12:58:53;1.83;;;0.90;;
66485;SDS011;53303;47.476;8.084;2023-04-02T13:01:25;3.53;;;0.88;;
66485;SDS011;53303;47.476;8.084;2023-04-02T13:04:06;2.60;;;1.13;;
66485;SDS011;53303;47.476;8.084;2023-04-02T13:06:36;2.83;;;0.90;;
66485;SDS011;53303;47.476;8.084;2023-04-02T13:09:04;3.20;;;0.90;;
66485;SDS011;53303;47.476;8.084;2023-04-02T13:11:38;1.38;;;0.82;;
66485;SDS011;53303;47.476;8.084;2023-04-02T13:14:06;3.08;;;1.10;;
66485;SDS011;53303;47.476;8.084;2023-04-02T13:16:43;2.28;;;0.90;;
66485;SDS011;53303;47.476;8.084;2023-04-02T13:19:22;1.52;;;1.00;;
66485;SDS011;53303;47.476;8.084;2023-04-02T13:21:57;1.48;;;0.73;;
66485;SDS011;53303;47.476;8.084;2023-04-02T13:24:25;2.47;;;1.20;;
66485;SDS011;53303;47.476;8.084;2023-04-02T13:26:56;1.95;;;0.77;;
66485;SDS011;53303;47.476;8.084;2023-04-02T13:29:25;2.53;;;1.02;;
66485;SDS011;53303;47.476;8.084;2023-04-02T13:31:53;2.80;;;1.00;;
66485;SDS011;53303;47.476;8.084;2023-04-02T13:34:21;2.72;;;0.90;;
66485;SDS011;53303;47.476;8.084;2023-04-02T13:36:46;2.55;;;0.90;;
66485;SDS011;53303;47.476;8.084;2023-04-02T13:39:14;2.33;;;0.80;;
66485;SDS011;53303;47.476;8.084;2023-04-02T13:41:50;2.00;;;1.10;;
66485;SDS011;53303;47.476;8.084;2023-04-02T13:46:48;4.05;;;1.30;;
66485;SDS011;53303;47.476;8.084;2023-04-02T13:49:13;2.58;;;0.80;;
66485;SDS011;53303;47.476;8.084;2023-04-02T13:54:20;1.00;;;0.75;;
66485;SDS011;53303;47.476;8.084;2023-04-02T13:56:51;2.47;;;0.90;;
66485;SDS011;53303;47.476;8.084;2023-04-02T13:59:18;2.67;;;1.00;;
66485;SDS011;53303;47.476;8.084;2023-04-02T14:01:44;1.60;;;0.82;;
66485;SDS011;53303;47.476;8.084;2023-04-02T14:04:12;1.90;;;0.80;;
66485;SDS011;53303;47.476;8.084;2023-04-02T14:14:45;1.48;;;1.00;;
66485;SDS011;53303;47.476;8.084;2023-04-02T14:25:38;2.05;;;0.82;;
66485;SDS011;53303;47.476;8.084;2023-04-02T14:28:29;2.22;;;0.70;;
66485;SDS011;53303;47.476;8.084;2023-04-02T14:34:02;3.55;;;0.80;;
66485;SDS011;53303;47.476;8.084;2023-04-02T14:42:03;1.77;;;0.70;;
66485;SDS011;53303;47.476;8.084;2023-04-02T14:44:35;2.15;;;0.80;;
66485;SDS011;53303;47.476;8.084;2023-04-02T14:47:13;1.40;;;0.90;;
66485;SDS011;53303;47.476;8.084;2023-04-02T14:49:43;2.38;;;0.88;;
66485;SDS011;53303;47.476;8.084;2023-04-02T14:52:16;3.90;;;0.73;;
66485;SDS011;53303;47.476;8.084;2023-04-02T14:57:22;1.95;;;0.80;;
66485;SDS011;53303;47.476;8.084;2023-04-02T15:00:01;3.85;;;1.08;;
66485;SDS011;53303;47.476;8.084;2023-04-02T15:02:51;3.05;;;0.80;;
66485;SDS011;53303;47.476;8.084;2023-04-02T15:08:00;3.38;;;1.00;;
66485;SDS011;53303;47.476;8.084;2023-04-02T15:12:57;2.22;;;0.98;;
66485;SDS011;53303;47.476;8.084;2023-04-02T15:15:35;4.30;;;0.95;;
66485;SDS011;53303;47.476;8.084;2023-04-02T15:18:08;2.33;;;0.82;;
66485;SDS011;53303;47.476;8.084;2023-04-02T15:20:38;2.25;;;0.90;;
66485;SDS011;53303;47.476;8.084;2023-04-02T15:23:14;1.02;;;0.80;;
66485;SDS011;53303;47.476;8.084;2023-04-02T15:26:11;3.25;;;0.90;;
66485;SDS011;53303;47.476;8.084;2023-04-02T15:28:49;1.75;;;0.90;;
66485;SDS011;53303;47.476;8.084;2023-04-02T15:31:22;3.88;;;1.00;;
66485;SDS011;53303;47.476;8.084;2023-04-02T15:42:28;2.50;;;0.90;;
66485;SDS011;53303;47.476;8.084;2023-04-02T15:47:35;1.35;;;0.80;;
66485;SDS011;53303;47.476;8.084;2023-04-02T15:55:27;2.40;;;0.80;;
66485;SDS011;53303;47.476;8.084;2023-04-02T15:58:16;2.47;;;0.60;;
66485;SDS011;53303;47.476;8.084;2023-04-02T16:01:12;3.85;;;0.88;;
66485;SDS011;53303;47.476;8.084;2023-04-02T16:12:17;3.97;;;0.80;;
66485;SDS011;53303;47.476;8.084;2023-04-02T16:14:45;1.77;;;0.90;;
66485;SDS011;53303;47.476;8.084;2023-04-02T16:17:17;2.58;;;0.68;;
66485;SDS011;53303;47.476;8.084;2023-04-02T16:19:50;1.20;;;0.70;;
66485;SDS011;53303;47.476;8.084;2023-04-02T16:24:58;2.72;;;0.63;;
66485;SDS011;53303;47.476;8.084;2023-04-02T16:27:30;0.73;;;0.60;;
66485;SDS011;53303;47.476;8.084;2023-04-02T16:33:06;1.08;;;0.68;;
66485;SDS011;53303;47.476;8.084;2023-04-02T16:38:39;2.70;;;0.63;;
66485;SDS011;53303;47.476;8.084;2023-04-02T16:41:32;4.68;;;0.90;;
66485;SDS011;53303;47.476;8.084;2023-04-02T16:52:40;3.83;;;1.00;;
66485;SDS011;53303;47.476;8.084;2023-04-02T16:55:21;2.25;;;0.80;;
66485;SDS011;53303;47.476;8.084;2023-04-02T17:01:15;2.45;;;0.70;;
66485;SDS011;53303;47.476;8.084;2023-04-02T17:17:00;92.57;;;9.38;;
66485;SDS011;53303;47.476;8.084;2023-04-02T17:19:28;100.13;;;9.40;;
66485;SDS011;53303;47.476;8.084;2023-04-02T17:22:01;132.40;;;11.63;;
66485;SDS011;53303;47.476;8.084;2023-04-02T17:24:36;108.00;;;10.77;;
66485;SDS011;53303;47.476;8.084;2023-04-02T17:27:21;92.97;;;8.43;;
66485;SDS011;53303;47.476;8.084;2023-04-02T17:30:04;79.78;;;7.78;;
66485;SDS011;53303;47.476;8.084;2023-04-02T17:32:39;88.00;;;7.55;;
66485;SDS011;53303;47.476;8.084;2023-04-02T17:35:15;79.35;;;8.05;;
66485;SDS011;53303;47.476;8.084;2023-04-02T17:37:42;57.90;;;7.70;;
66485;SDS011;53303;47.476;8.084;2023-04-02T17:42:52;39.88;;;5.10;;
66485;SDS011;53303;47.476;8.084;2023-04-02T17:48:17;65.22;;;5.43;;
66485;SDS011;53303;47.476;8.084;2023-04-02T17:51:08;50.78;;;4.97;;
66485;SDS011;53303;47.476;8.084;2023-04-02T17:53:46;48.75;;;5.47;;
66485;SDS011;53303;47.476;8.084;2023-04-02T18:01:29;53.67;;;4.88;;
66485;SDS011;53303;47.476;8.084;2023-04-02T18:18:16;43.92;;;4.50;;
66485;SDS011;53303;47.476;8.084;2023-04-02T18:42:54;31.33;;;4.13;;
66485;SDS011;53303;47.476;8.084;2023-04-02T18:51:17;39.85;;;3.65;;
66485;SDS011;53303;47.476;8.084;2023-04-02T18:53:48;27.73;;;3.95;;
66485;SDS011;53303;47.476;8.084;2023-04-02T18:56:24;31.50;;;3.85;;
66485;SDS011;53303;47.476;8.084;2023-04-02T18:58:55;23.90;;;3.08;;
66485;SDS011;53303;47.476;8.084;2023-04-02T19:01:33;27.40;;;3.55;;
66485;SDS011;53303;47.476;8.084;2023-04-02T19:04:04;26.10;;;2.97;;
66485;SDS011;53303;47.476;8.084;2023-04-02T19:06:50;28.83;;;3.50;;
66485;SDS011;53303;47.476;8.084;2023-04-02T19:09:25;29.42;;;3.95;;
66485;SDS011;53303;47.476;8.084;2023-04-02T19:11:55;28.40;;;3.22;;
66485;SDS011;53303;47.476;8.084;2023-04-02T19:14:20;28.75;;;4.32;;
66485;SDS011;53303;47.476;8.084;2023-04-02T19:25:23;22.73;;;3.40;;
66485;SDS011;53303;47.476;8.084;2023-04-02T19:30:57;21.58;;;2.97;;
66485;SDS011;53303;47.476;8.084;2023-04-02T19:44:00;21.92;;;2.70;;
66485;SDS011;53303;47.476;8.084;2023-04-02T19:46:32;16.63;;;2.47;;
66485;SDS011;53303;47.476;8.084;2023-04-02T19:51:32;14.00;;;3.10;;
66485;SDS011;53303;47.476;8.084;2023-04-02T19:54:00;17.50;;;2.80;;
66485;SDS011;53303;47.476;8.084;2023-04-02T19:56:26;20.05;;;2.72;;
66485;SDS011;53303;47.476;8.084;2023-04-02T19:58:52;20.52;;;2.60;;
66485;SDS011;53303;47.476;8.084;2023-04-02T20:01:18;13.88;;;1.95;;
66485;SDS011;53303;47.476;8.084;2023-04-02T20:03:44;21.00;;;2.72;;
66485;SDS011;53303;47.476;8.084;2023-04-02T20:06:10;17.80;;;2.85;;
66485;SDS011;53303;47.476;8.084;2023-04-02T20:08:35;20.50;;;2.38;;
66485;SDS011;53303;47.476;8.084;2023-04-02T20:11:01;19.27;;;2.55;;
66485;SDS011;53303;47.476;8.084;2023-04-02T20:13:27;19.15;;;3.08;;
66485;SDS011;53303;47.476;8.084;2023-04-02T20:15:53;23.02;;;2.63;;
66485;SDS011;53303;47.476;8.084;2023-04-02T20:18:18;23.33;;;3.15;;
66485;SDS011;53303;47.476;8.084;2023-04-02T20:20:47;20.65;;;2.50;;
66485;SDS011;53303;47.476;8.084;2023-04-02T20:23:13;14.82;;;2.20;;
66485;SDS011;53303;47.476;8.084;2023-04-02T20:25:44;17.00;;;2.45;;
66485;SDS011;53303;47.476;8.084;2023-04-02T20:28:10;16.52;;;2.53;;
66485;SDS011;53303;47.476;8.084;2023-04-02T20:30:36;22.75;;;2.78;;
66485;SDS011;53303;47.476;8.084;2023-04-02T20:33:02;20.25;;;2.55;;
66485;SDS011;53303;47.476;8.084;2023-04-02T20:35:27;22.15;;;2.58;;
66485;SDS011;53303;47.476;8.084;2023-04-02T20:37:53;15.18;;;2.33;;
66485;SDS011;53303;47.476;8.084;2023-04-02T20:40:19;17.27;;;2.40;;
66485;SDS011;53303;47.476;8.084;2023-04-02T20:42:47;12.35;;;2.15;;
66485;SDS011;53303;47.476;8.084;2023-04-02T20:45:13;11.80;;;2.42;;
66485;SDS011;53303;47.476;8.084;2023-04-02T20:47:38;19.25;;;2.83;;
66485;SDS011;53303;47.476;8.084;2023-04-02T20:50:06;16.63;;;2.22;;
66485;SDS011;53303;47.476;8.084;2023-04-02T20:52:32;17.30;;;2.28;;
66485;SDS011;53303;47.476;8.084;2023-04-02T20:55:00;12.65;;;2.35;;
66485;SDS011;53303;47.476;8.084;2023-04-02T20:57:28;16.10;;;2.30;;
66485;SDS011;53303;47.476;8.084;2023-04-02T20:59:54;14.73;;;1.92;;
66485;SDS011;53303;47.476;8.084;2023-04-02T21:02:22;11.63;;;1.50;;
66485;SDS011;53303;47.476;8.084;2023-04-02T21:04:50;14.75;;;1.73;;
66485;SDS011;53303;47.476;8.084;2023-04-02T21:07:15;16.05;;;2.13;;
66485;SDS011;53303;47.476;8.084;2023-04-02T21:09:40;14.52;;;1.83;;
66485;SDS011;53303;47.476;8.084;2023-04-02T21:12:06;14.07;;;2.17;;
66485;SDS011;53303;47.476;8.084;2023-04-02T21:14:35;17.55;;;2.50;;
66485;SDS011;53303;47.476;8.084;2023-04-02T21:17:03;14.20;;;1.90;;
66485;SDS011;53303;47.476;8.084;2023-04-02T21:19:30;8.88;;;1.85;;